Time;durP1;ratioP1;P1;durP2;ratioP2;P2;SDS_P1;SDS_P2;PMS_P1;PMS_P2;Temp;Humidity;BMP_temperature;BMP_pressure;BME280_temperature;BME280_humidity;BME280_pressure;Samples;Min_cycle;Max_cycle;Signal;HPM_P1;HPM_P2
2022/06/10 00:00:50;;;;;;;8.88;2.90;;;14.70;62.90;;;;;;5053509;28;20040;-70
2022/06/10 00:03:17;;;;;;;6.30;2.80;;;14.70;62.70;;;;;;5053522;28;20078;-71
2022/06/10 00:05:47;;;;;;;5.45;2.47;;;14.60;62.60;;;;;;5053865;28;20107;-71
2022/06/10 00:08:17;;;;;;;7.30;2.58;;;14.60;62.60;;;;;;5053106;28;20103;-70
2022/06/10 00:10:49;;;;;;;8.50;2.55;;;14.60;62.70;;;;;;5052172;28;20047;-70
2022/06/10 00:13:15;;;;;;;5.68;2.35;;;14.60;62.80;;;;;;5053443;28;20108;-72
2022/06/10 00:15:43;;;;;;;3.83;1.70;;;14.50;62.80;;;;;;5053514;28;20113;-70
2022/06/10 00:18:09;;;;;;;4.57;1.90;;;14.50;62.90;;;;;;5052818;28;20044;-71
2022/06/10 00:20:35;;;;;;;3.10;1.48;;;14.50;62.90;;;;;;5052973;28;20037;-71
2022/06/10 00:23:01;;;;;;;4.28;1.83;;;14.50;63.00;;;;;;5051861;28;20297;-70
2022/06/10 00:25:28;;;;;;;5.45;1.65;;;14.50;63.10;;;;;;5052660;28;20048;-70
2022/06/10 00:27:55;;;;;;;5.75;1.88;;;14.50;63.10;;;;;;5052781;28;20033;-69
2022/06/10 00:30:25;;;;;;;5.10;1.95;;;14.50;63.10;;;;;;5052729;28;20435;-69
2022/06/10 00:32:51;;;;;;;5.70;2.15;;;14.50;63.10;;;;;;5052271;28;20049;-70
2022/06/10 00:35:17;;;;;;;6.32;2.30;;;14.50;63.10;;;;;;5053033;28;20094;-67
2022/06/10 00:37:43;;;;;;;4.57;1.98;;;14.50;63.00;;;;;;5051749;28;20481;-68
2022/06/10 00:40:14;;;;;;;5.32;2.30;;;14.50;63.00;;;;;;5052319;28;20040;-67
2022/06/10 00:42:40;;;;;;;7.80;2.70;;;14.50;63.00;;;;;;5042428;28;20495;-68
2022/06/10 00:45:26;;;;;;;7.15;3.20;;;14.40;62.90;;;;;;5051851;28;20053;-69
2022/06/10 00:47:52;;;;;;;3.83;2.33;;;14.40;62.90;;;;;;5052497;28;20075;-67
2022/06/10 00:50:27;;;;;;;7.18;2.95;;;14.40;62.90;;;;;;5051980;28;20040;-68
2022/06/10 00:53:02;;;;;;;8.65;2.38;;;14.30;62.80;;;;;;5052739;28;20387;-68
2022/06/10 00:55:28;;;;;;;;;;;14.30;62.90;;;;;;5051089;28;20094;-67
2022/06/10 00:58:00;;;;;;;3.25;1.60;;;14.30;62.70;;;;;;5052899;28;19924;-68
2022/06/10 01:00:27;;;;;;;6.22;1.95;;;14.20;63.10;;;;;;5050979;28;20048;-67
2022/06/10 01:02:52;;;;;;;5.75;2.13;;;14.30;63.30;;;;;;5052821;28;20145;-67
2022/06/10 01:05:22;;;;;;;6.28;1.83;;;14.20;63.20;;;;;;5051042;28;20477;-67
2022/06/10 01:07:59;;;;;;;6.85;2.53;;;14.20;63.30;;;;;;5051521;28;20542;-67
2022/06/10 01:10:26;;;;;;;8.65;2.60;;;14.20;63.40;;;;;;5050855;28;20045;-68
2022/06/10 01:13:12;;;;;;;7.68;2.60;;;14.20;63.40;;;;;;5052471;28;20396;-67
2022/06/10 01:15:59;;;;;;;8.20;2.30;;;14.20;63.50;;;;;;5049462;28;20048;-67
2022/06/10 01:18:59;;;;;;;4.68;1.95;;;14.20;63.40;;;;;;5033371;28;20107;-67
2022/06/10 01:22:01;;;;;;;8.30;2.72;;;14.20;63.40;;;;;;5041475;28;20497;-67
2022/06/10 01:24:43;;;;;;;6.03;2.50;;;14.20;63.50;;;;;;5064567;28;20045;-67
2022/06/10 01:27:48;;;;;;;6.22;2.55;;;14.10;63.60;;;;;;5050807;28;20041;-67
2022/06/10 01:30:19;;;;;;;7.88;2.55;;;14.10;63.50;;;;;;5052118;28;20080;-67
2022/06/10 01:33:13;;;;;;;5.93;2.40;;;14.00;63.60;;;;;;5050432;28;20044;-67
2022/06/10 01:35:45;;;;;;;5.00;2.13;;;14.00;63.70;;;;;;5051180;28;20044;-68
2022/06/10 01:38:16;;;;;;;8.73;2.15;;;14.00;63.80;;;;;;5051013;28;20127;-67
2022/06/10 01:40:54;;;;;;;7.57;1.75;;;14.00;63.80;;;;;;5051652;28;20044;-68
2022/06/10 01:43:22;;;;;;;3.03;1.52;;;13.90;64.00;;;;;;5052111;28;20407;-68
2022/06/10 01:45:54;;;;;;;4.72;2.03;;;13.90;64.00;;;;;;5056103;28;20041;-68
2022/06/10 01:48:32;;;;;;;4.22;1.73;;;13.90;64.10;;;;;;5055972;28;20091;-68
2022/06/10 01:51:12;;;;;;;4.63;2.08;;;13.90;64.20;;;;;;5054982;28;20036;-68
2022/06/10 01:53:44;;;;;;;5.65;2.40;;;13.90;64.10;;;;;;5055535;28;20108;-69
2022/06/10 01:56:20;;;;;;;4.55;1.70;;;13.90;64.10;;;;;;5054151;28;20072;-69
2022/06/10 01:58:56;;;;;;;6.45;2.42;;;13.90;64.10;;;;;;5055864;28;20381;-69
2022/06/10 02:01:45;;;;;;;4.05;1.40;;;13.90;64.10;;;;;;5054163;28;20045;-69
2022/06/10 02:04:16;;;;;;;5.57;1.80;;;13.90;64.10;;;;;;5054067;28;20040;-69
2022/06/10 02:06:52;;;;;;;9.50;2.60;;;13.80;64.00;;;;;;5054483;28;20435;-69
2022/06/10 02:09:25;;;;;;;4.72;1.98;;;13.90;64.00;;;;;;5049236;28;20059;-70
2022/06/10 02:11:56;;;;;;;6.07;2.15;;;13.90;64.00;;;;;;5052690;28;20042;-69
2022/06/10 02:14:30;;;;;;;8.23;2.50;;;13.80;64.00;;;;;;5054263;28;20488;-69
2022/06/10 02:16:57;;;;;;;;;;;13.80;64.10;;;;;;5055486;28;20067;-71
2022/06/10 02:19:31;;;;;;;4.82;1.83;;;13.70;63.60;;;;;;5053508;28;19917;-69
2022/06/10 02:22:06;;;;;;;6.72;2.33;;;13.70;64.00;;;;;;5055141;28;20055;-69
2022/06/10 02:24:38;;;;;;;6.13;2.20;;;13.70;64.00;;;;;;5051197;28;20063;-68
2022/06/10 02:27:09;;;;;;;3.70;1.88;;;13.70;64.00;;;;;;5055656;28;20133;-69
2022/06/10 02:29:51;;;;;;;5.95;2.08;;;13.60;64.10;;;;;;5037378;28;20040;-68
2022/06/10 02:32:18;;;;;;;6.47;2.83;;;13.60;64.20;;;;;;5055194;28;20044;-69
2022/06/10 02:34:44;;;;;;;6.35;1.98;;;13.60;64.80;;;;;;5054239;28;20048;-69
2022/06/10 02:37:14;;;;;;;5.68;2.10;;;13.60;64.40;;;;;;5054380;28;20472;-70
2022/06/10 02:40:12;;;;;;;7.38;2.10;;;13.60;64.50;;;;;;5053502;28;20048;-69
2022/06/10 02:43:06;;;;;;;3.88;1.55;;;13.60;64.60;;;;;;5042513;28;20488;-68
2022/06/10 02:45:36;;;;;;;7.32;2.30;;;13.60;64.60;;;;;;5055004;28;20037;-69
2022/06/10 02:48:29;;;;;;;5.75;1.73;;;13.60;64.60;;;;;;5053722;28;20052;-68
2022/06/10 02:50:55;;;;;;;8.02;2.33;;;13.60;64.60;;;;;;5053081;28;20087;-69
2022/06/10 02:53:21;;;;;;;4.65;1.80;;;13.60;64.60;;;;;;5053810;28;20036;-69
2022/06/10 02:55:47;;;;;;;6.65;1.98;;;13.60;64.60;;;;;;5053590;28;20451;-69
2022/06/10 03:01:11;;;;;;;8.23;2.05;;;13.50;64.50;;;;;;5054278;28;20495;-68
2022/06/10 03:03:58;;;;;;;4.38;1.80;;;13.50;64.60;;;;;;5054505;28;20047;-68
2022/06/10 03:06:48;;;;;;;5.85;2.42;;;13.50;64.60;;;;;;5053554;28;20122;-68
2022/06/10 03:09:22;;;;;;;4.72;1.88;;;13.50;64.60;;;;;;5046154;28;20561;-68
2022/06/10 03:11:57;;;;;;;7.30;2.22;;;13.40;64.60;;;;;;5054533;28;20045;-68
2022/06/10 03:14:44;;;;;;;5.90;2.50;;;13.40;64.70;;;;;;5053601;28;20052;-69
2022/06/10 03:17:21;;;;;;;5.55;2.53;;;13.40;64.70;;;;;;5053193;28;20128;-69
2022/06/10 03:20:11;;;;;;;4.60;1.80;;;13.40;64.80;;;;;;5053155;28;20045;-69
2022/06/10 03:22:48;;;;;;;6.13;2.22;;;13.40;65.00;;;;;;5052890;28;20057;-69
2022/06/10 03:25:30;;;;;;;6.25;2.00;;;13.30;65.00;;;;;;5052421;28;20049;-69
2022/06/10 03:28:12;;;;;;;7.28;2.38;;;13.30;65.10;;;;;;5054127;28;20037;-68
2022/06/10 03:30:53;;;;;;;6.70;2.50;;;13.30;65.00;;;;;;5052884;28;20045;-68
2022/06/10 03:33:30;;;;;;;5.97;2.10;;;13.30;65.10;;;;;;5052447;28;20211;-69
2022/06/10 03:36:03;;;;;;;5.05;2.03;;;13.30;65.10;;;;;;5047116;28;20476;-69
2022/06/10 03:38:37;;;;;;;6.78;2.67;;;13.30;65.20;;;;;;5053422;28;20408;-69
2022/06/10 03:41:03;;;;;;;7.70;2.55;;;13.30;65.30;;;;;;5050439;28;20041;-68
2022/06/10 03:43:38;;;;;;;9.30;2.97;;;13.20;65.30;;;;;;5054325;28;20369;-68
2022/06/10 03:46:10;;;;;;;5.43;2.67;;;13.20;65.40;;;;;;5053221;28;20037;-68
2022/06/10 03:48:38;;;;;;;7.20;2.28;;;13.20;65.60;;;;;;5053099;28;20075;-68
2022/06/10 03:51:05;;;;;;;8.80;3.03;;;13.20;65.70;;;;;;5053523;28;20087;-69
2022/06/10 03:53:30;;;;;;;9.05;2.75;;;13.20;65.80;;;;;;5054186;28;20037;-68
2022/06/10 03:55:56;;;;;;;7.85;2.95;;;13.20;65.90;;;;;;5052296;28;20037;-69
2022/06/10 03:58:22;;;;;;;12.25;2.72;;;13.20;66.00;;;;;;5052634;28;20037;-68
2022/06/10 04:00:48;;;;;;;9.20;3.90;;;13.20;66.10;;;;;;5053146;28;20037;-68
2022/06/10 04:03:14;;;;;;;9.27;3.33;;;13.10;66.20;;;;;;5052012;28;20119;-69
2022/06/10 04:05:40;;;;;;;10.02;3.17;;;13.10;66.40;;;;;;5050899;28;20041;-69
2022/06/10 04:08:06;;;;;;;11.05;3.40;;;13.10;66.50;;;;;;5053934;28;20037;-69
2022/06/10 04:10:32;;;;;;;11.65;3.55;;;13.10;66.80;;;;;;5053269;28;20029;-68
2022/06/10 04:12:58;;;;;;;9.55;3.75;;;13.10;66.90;;;;;;5053389;28;20040;-69
2022/06/10 04:15:25;;;;;;;6.50;2.90;;;13.10;67.20;;;;;;5051671;28;20484;-68
2022/06/10 04:17:53;;;;;;;5.45;2.10;;;13.10;67.30;;;;;;5052521;28;20040;-70
2022/06/10 04:20:23;;;;;;;11.90;3.03;;;13.10;67.50;;;;;;5048223;28;20119;-69
2022/06/10 04:22:48;;;;;;;10.20;3.10;;;13.10;67.60;;;;;;5051709;28;20124;-68
2022/06/10 04:25:14;;;;;;;7.93;3.22;;;13.00;67.80;;;;;;5051666;28;20568;-69
2022/06/10 04:27:41;;;;;;;12.13;3.75;;;13.10;68.10;;;;;;5053078;28;20041;-69
2022/06/10 04:30:08;;;;;;;6.68;2.75;;;13.10;68.20;;;;;;5052930;28;20408;-68
2022/06/10 04:32:35;;;;;;;10.00;3.97;;;13.10;68.50;;;;;;5052234;28;20423;-69
2022/06/10 04:35:00;;;;;;;8.73;3.38;;;13.10;68.70;;;;;;5051761;28;20151;-69
2022/06/10 04:37:26;;;;;;;13.07;4.10;;;13.10;69.00;;;;;;5051943;28;20116;-69
2022/06/10 04:39:52;;;;;;;16.02;3.83;;;13.20;69.40;;;;;;5050541;28;20044;-69
2022/06/10 04:42:18;;;;;;;9.95;3.33;;;13.20;69.60;;;;;;5050896;28;20114;-69
2022/06/10 04:44:43;;;;;;;11.50;3.70;;;13.20;69.80;;;;;;5052851;28;20044;-68
2022/06/10 04:47:09;;;;;;;8.35;3.40;;;13.30;70.00;;;;;;5051298;28;20534;-68
2022/06/10 04:49:36;;;;;;;11.23;4.32;;;13.30;70.30;;;;;;5051216;28;20396;-69
2022/06/10 04:52:05;;;;;;;8.50;3.58;;;13.40;70.50;;;;;;5050843;28;20088;-68
2022/06/10 04:54:31;;;;;;;10.63;3.97;;;13.50;70.70;;;;;;5052407;28;20060;-69
2022/06/10 04:56:56;;;;;;;10.13;3.35;;;13.50;70.70;;;;;;5051976;28;20041;-68
2022/06/10 04:59:22;;;;;;;9.30;2.88;;;13.60;70.70;;;;;;5051069;28;20044;-69
2022/06/10 05:01:49;;;;;;;9.43;3.40;;;13.70;70.70;;;;;;5052683;28;20048;-69
2022/06/10 05:04:15;;;;;;;11.88;3.10;;;13.70;70.60;;;;;;5051705;28;20384;-69
2022/06/10 05:06:40;;;;;;;6.32;3.08;;;13.90;70.60;;;;;;5050534;28;20041;-69
2022/06/10 05:09:06;;;;;;;7.60;3.40;;;13.90;70.30;;;;;;5050858;28;20037;-70
2022/06/10 05:11:32;;;;;;;9.30;2.80;;;14.00;70.20;;;;;;5052532;28;20071;-69
2022/06/10 05:13:57;;;;;;;11.75;3.60;;;14.00;70.10;;;;;;5051359;28;20052;-69
2022/06/10 05:16:25;;;;;;;12.00;4.10;;;14.10;70.10;;;;;;5051268;28;20029;-69
2022/06/10 05:18:50;;;;;;;9.35;3.13;;;14.20;70.10;;;;;;5047110;28;20037;-69
2022/06/10 05:21:17;;;;;;;11.27;3.13;;;14.20;70.00;;;;;;5050604;28;20073;-69
2022/06/10 05:23:46;;;;;;;10.43;3.17;;;14.30;70.00;;;;;;5051548;28;20094;-69
2022/06/10 05:26:13;;;;;;;11.13;3.40;;;14.30;70.00;;;;;;5050423;28;20041;-69
2022/06/10 05:28:40;;;;;;;8.05;3.38;;;14.40;70.00;;;;;;5033840;28;20060;-68
2022/06/10 05:31:05;;;;;;;13.70;3.63;;;14.40;69.90;;;;;;5050808;28;20052;-69
2022/06/10 05:34:44;;;;;;;7.30;3.72;;;14.50;70.00;;;;;;5051383;28;20044;-69
2022/06/10 05:36:20;;;;;;;7.88;2.65;;;14.60;70.10;;;;;;5050094;28;20514;-69
2022/06/10 05:38:46;;;;;;;8.20;2.97;;;14.60;70.00;;;;;;5051106;28;20049;-70
2022/06/10 05:43:56;;;;;;;11.07;3.63;;;14.70;70.40;;;;;;5046098;28;20103;-69
2022/06/10 05:46:22;;;;;;;8.75;3.05;;;14.80;71.10;;;;;;5051008;28;20068;-70
2022/06/10 05:48:48;;;;;;;8.77;3.15;;;14.90;70.90;;;;;;5051270;28;20052;-70
2022/06/10 05:51:13;;;;;;;11.00;3.53;;;14.90;71.00;;;;;;5051820;28;20072;-70
2022/06/10 05:53:39;;;;;;;7.18;3.05;;;14.90;71.20;;;;;;5041178;28;20044;-70
2022/06/10 05:56:05;;;;;;;9.05;3.83;;;14.90;71.40;;;;;;5065285;28;20079;-70
2022/06/10 05:58:30;;;;;;;9.05;2.80;;;15.00;71.60;;;;;;5066548;28;20056;-70
2022/06/10 06:00:56;;;;;;;9.13;3.60;;;15.00;71.70;;;;;;5065754;28;20051;-70
2022/06/10 06:03:24;;;;;;;12.98;3.97;;;15.10;71.90;;;;;;5066698;28;20152;-70
2022/06/10 06:05:50;;;;;;;12.80;4.28;;;15.10;72.00;;;;;;5064815;28;20044;-64
2022/06/10 06:08:16;;;;;;;11.50;4.13;;;15.20;72.10;;;;;;5062657;28;20045;-64
2022/06/10 06:10:43;;;;;;;12.20;4.32;;;15.20;72.20;;;;;;5058327;28;20041;-61
2022/06/10 06:13:10;;;;;;;8.88;3.55;;;15.20;72.10;;;;;;5033358;28;20041;-62
2022/06/10 06:15:37;;;;;;;13.18;4.78;;;15.30;72.10;;;;;;5032636;28;20412;-61
2022/06/10 06:18:03;;;;;;;13.18;5.00;;;15.30;72.10;;;;;;5048707;28;20045;-62
2022/06/10 06:20:29;;;;;;;11.75;4.38;;;15.40;72.20;;;;;;5048114;28;20104;-61
2022/06/10 06:22:55;;;;;;;15.63;4.25;;;15.40;72.30;;;;;;5048412;28;20056;-62
2022/06/10 06:25:20;;;;;;;11.00;4.70;;;15.40;72.10;;;;;;5016025;28;20440;-61
2022/06/10 06:27:48;;;;;;;10.52;3.72;;;15.50;72.10;;;;;;5050718;28;20047;-61
2022/06/10 06:30:30;;;;;;;12.70;5.15;;;15.50;72.00;;;;;;5053590;28;20043;-62
2022/06/10 06:32:56;;;;;;;13.38;4.32;;;15.60;72.10;;;;;;5054403;28;20076;-62
2022/06/10 06:35:22;;;;;;;12.63;4.95;;;15.60;72.00;;;;;;5054875;28;20550;-63
2022/06/10 06:37:49;;;;;;;11.57;4.80;;;15.70;72.10;;;;;;5053984;28;20041;-62
2022/06/10 06:40:15;;;;;;;10.48;4.53;;;15.70;72.20;;;;;;5053724;28;20476;-62
2022/06/10 06:42:40;;;;;;;13.60;4.63;;;15.80;72.30;;;;;;5053038;28;20084;-62
2022/06/10 06:45:07;;;;;;;11.65;4.03;;;15.90;72.30;;;;;;5052657;28;20069;-63
2022/06/10 06:47:33;;;;;;;7.25;3.28;;;16.00;72.30;;;;;;5068982;28;20041;-63
2022/06/10 06:49:59;;;;;;;7.65;4.07;;;16.00;72.00;;;;;;5052975;28;20102;-63
2022/06/10 06:52:25;;;;;;;9.75;4.13;;;16.10;72.00;;;;;;5052560;28;20049;-63
2022/06/10 06:54:51;;;;;;;12.27;4.95;;;16.10;71.90;;;;;;5052658;28;20060;-63
2022/06/10 06:57:18;;;;;;;9.32;4.10;;;16.20;71.90;;;;;;5051929;28;20037;-63
2022/06/10 06:59:43;;;;;;;8.40;3.97;;;16.30;72.00;;;;;;5054762;28;20075;-62
2022/06/10 07:02:10;;;;;;;12.07;4.55;;;16.40;71.90;;;;;;5054265;28;20076;-63
2022/06/10 07:04:36;;;;;;;14.70;4.38;;;16.40;71.70;;;;;;5054765;28;20499;-63
2022/06/10 07:07:02;;;;;;;7.53;4.05;;;16.50;71.50;;;;;;5036747;28;20086;-69
2022/06/10 07:09:29;;;;;;;10.02;4.20;;;16.50;71.70;;;;;;5053170;28;20124;-69
2022/06/10 07:11:55;;;;;;;11.90;4.60;;;16.50;71.70;;;;;;5054427;28;20488;-69
2022/06/10 07:14:22;;;;;;;11.18;4.05;;;16.60;71.80;;;;;;5054691;28;20088;-69
2022/06/10 07:16:51;;;;;;;12.90;3.78;;;16.70;71.90;;;;;;5052443;28;20531;-69
2022/06/10 07:19:19;;;;;;;11.00;4.38;;;16.80;72.00;;;;;;5053130;28;20051;-69
2022/06/10 07:21:45;;;;;;;7.82;3.30;;;16.80;71.90;;;;;;5052970;28;20388;-69
2022/06/10 07:24:11;;;;;;;9.65;3.97;;;16.90;71.70;;;;;;5053516;28;20060;-70
2022/06/10 07:26:38;;;;;;;10.85;4.47;;;17.00;71.60;;;;;;5053194;28;20041;-69
2022/06/10 07:29:04;;;;;;;13.98;4.60;;;17.10;71.50;;;;;;5054131;28;20138;-69
2022/06/10 07:31:30;;;;;;;8.55;3.60;;;17.20;71.30;;;;;;5052780;28;20040;-69
2022/06/10 07:33:57;;;;;;;10.73;3.67;;;17.30;71.10;;;;;;5052193;28;20052;-69
2022/06/10 07:36:23;;;;;;;11.05;4.50;;;17.40;71.00;;;;;;5052804;28;20049;-69
2022/06/10 07:38:49;;;;;;;10.43;4.72;;;17.40;70.90;;;;;;5053919;28;20043;-69
2022/06/10 07:43:59;;;;;;;11.18;4.00;;;17.60;70.50;;;;;;5052893;28;20064;-70
2022/06/10 07:46:25;;;;;;;9.75;3.83;;;17.60;70.40;;;;;;5051861;28;20041;-70
2022/06/10 07:48:51;;;;;;;12.75;5.03;;;17.70;70.30;;;;;;5052580;28;20049;-71
2022/06/10 07:51:18;;;;;;;12.57;5.25;;;17.70;70.10;;;;;;5052521;28;20357;-71
2022/06/10 07:53:44;;;;;;;12.55;4.00;;;17.80;69.90;;;;;;5052730;28;20427;-70
2022/06/10 07:56:13;;;;;;;10.63;3.95;;;17.80;69.70;;;;;;5052635;28;20045;-70
2022/06/10 07:58:39;;;;;;;8.73;3.13;;;17.90;69.60;;;;;;5051470;28;20041;-70
2022/06/10 08:01:05;;;;;;;9.93;3.38;;;17.90;69.20;;;;;;5052257;28;20051;-71
2022/06/10 08:03:31;;;;;;;8.98;3.70;;;18.00;69.30;;;;;;5051776;28;20119;-70
2022/06/10 08:05:58;;;;;;;12.52;3.55;;;18.00;69.40;;;;;;5053666;28;20037;-70
2022/06/10 08:08:24;;;;;;;8.00;2.95;;;18.00;69.30;;;;;;5053429;28;20048;-64
2022/06/10 08:10:51;;;;;;;9.15;2.80;;;18.10;69.00;;;;;;5051485;28;20057;-63
2022/06/10 08:13:17;;;;;;;10.15;3.47;;;18.10;68.80;;;;;;5035373;28;20051;-63
2022/06/10 08:15:44;;;;;;;6.28;2.58;;;18.10;69.20;;;;;;5052402;28;20033;-64
2022/06/10 08:18:11;;;;;;;12.00;2.80;;;18.20;68.50;;;;;;5051783;28;20049;-64
2022/06/10 08:23:26;;;;;;;12.20;3.22;;;18.30;68.10;;;;;;5051812;28;20135;-64
2022/06/10 08:25:54;;;;;;;6.82;2.30;;;18.30;67.90;;;;;;5053217;28;20048;-63
2022/06/10 08:28:20;;;;;;;6.75;2.58;;;18.40;67.60;;;;;;5053031;28;20511;-64
2022/06/10 08:30:46;;;;;;;10.63;2.75;;;18.40;67.40;;;;;;5053021;28;20029;-64
2022/06/10 08:33:11;;;;;;;9.85;3.15;;;18.50;67.10;;;;;;5051568;28;20404;-64
2022/06/10 08:35:38;;;;;;;8.18;2.50;;;18.50;67.00;;;;;;5051868;28;20408;-64
2022/06/10 08:38:06;;;;;;;11.43;2.95;;;18.60;66.70;;;;;;5052894;28;20037;-64
2022/06/10 08:40:52;;;;;;;11.65;3.40;;;18.60;66.20;;;;;;5050631;28;20133;-64
2022/06/10 08:43:37;;;;;;;9.60;2.95;;;18.60;66.10;;;;;;5057690;28;20037;-61
2022/06/10 08:46:02;;;;;;;;;;;18.70;66.10;;;;;;5052085;28;20048;-61
2022/06/10 08:48:57;;;;;;;10.50;3.00;;;18.70;66.30;;;;;;5051473;28;19916;-61
2022/06/10 08:51:40;;;;;;;9.90;3.20;;;18.70;66.20;;;;;;5044090;28;20420;-63
2022/06/10 08:54:16;;;;;;;7.57;2.63;;;18.70;65.80;;;;;;5050844;28;20501;-63
2022/06/10 08:56:46;;;;;;;12.55;3.08;;;18.80;65.70;;;;;;5051322;28;20048;-63
2022/06/10 08:59:22;;;;;;;11.30;3.42;;;18.80;65.50;;;;;;5050349;28;20069;-62
2022/06/10 09:02:03;;;;;;;9.10;3.30;;;18.80;65.70;;;;;;5049837;28;20037;-63
2022/06/10 09:04:43;;;;;;;5.90;2.58;;;18.80;65.90;;;;;;5051557;28;20056;-64
2022/06/10 09:07:23;;;;;;;9.13;2.40;;;18.90;66.10;;;;;;5052575;28;20041;-63
2022/06/10 09:09:48;;;;;;;8.45;3.55;;;18.90;66.00;;;;;;5051345;28;20041;-63
2022/06/10 09:12:24;;;;;;;8.18;2.88;;;19.00;66.00;;;;;;5051216;28;20055;-63
2022/06/10 09:14:58;;;;;;;11.60;3.40;;;19.00;65.90;;;;;;5051345;28;20040;-63
2022/06/10 09:17:51;;;;;;;9.27;3.60;;;19.10;65.90;;;;;;5050952;28;20040;-63
2022/06/10 09:20:53;;;;;;;11.93;3.70;;;19.10;65.50;;;;;;5052091;28;20163;-62
2022/06/10 09:23:37;;;;;;;6.70;2.70;;;19.20;65.30;;;;;;5050264;28;20045;-62
2022/06/10 09:26:10;;;;;;;8.32;3.17;;;19.20;65.20;;;;;;5051410;28;20431;-63
2022/06/10 09:28:38;;;;;;;11.82;3.33;;;19.20;65.10;;;;;;5049779;28;20055;-63
2022/06/10 09:31:41;;;;;;;11.32;3.40;;;19.20;65.10;;;;;;5050785;28;20492;-63
2022/06/10 09:34:30;;;;;;;9.90;3.47;;;19.30;65.00;;;;;;5045592;28;20040;-62
2022/06/10 09:37:06;;;;;;;11.85;3.03;;;19.30;65.20;;;;;;5050781;28;20040;-63
2022/06/10 09:42:44;;;;;;;9.50;3.40;;;19.40;65.40;;;;;;5039821;28;20053;-62
2022/06/10 09:45:28;;;;;;;9.20;3.28;;;19.50;65.00;;;;;;5050648;28;20064;-64
2022/06/10 09:48:17;;;;;;;8.35;2.75;;;19.50;64.70;;;;;;5050747;28;20063;-63
2022/06/10 09:51:08;;;;;;;7.65;2.90;;;19.60;64.70;;;;;;5050522;28;20049;-63
2022/06/10 09:53:46;;;;;;;8.10;3.40;;;19.60;64.50;;;;;;5049253;28;20041;-63
2022/06/10 09:56:39;;;;;;;10.02;2.85;;;19.60;64.60;;;;;;5048683;28;20476;-64
2022/06/10 09:59:38;;;;;;;8.07;3.35;;;19.70;64.80;;;;;;5049166;28;20500;-63
2022/06/10 10:02:19;;;;;;;7.35;2.20;;;19.70;64.40;;;;;;5050776;28;20501;-63
2022/06/10 10:05:07;;;;;;;10.05;3.10;;;19.80;64.70;;;;;;5051759;28;20032;-63
2022/06/10 10:08:01;;;;;;;6.32;2.65;;;19.80;65.10;;;;;;5055577;28;20084;-62
2022/06/10 10:10:33;;;;;;;;;;;19.90;64.80;;;;;;5054638;28;20041;-63
2022/06/10 10:13:19;;;;;;;8.52;2.78;;;19.90;64.70;;;;;;5055609;28;19916;-63
2022/06/10 10:16:27;;;;;;;8.50;2.60;;;20.00;64.70;;;;;;5054079;28;20140;-62
2022/06/10 10:18:56;;;;;;;8.88;2.85;;;20.10;64.60;;;;;;5053792;28;20068;-63
2022/06/10 10:21:41;;;;;;;7.20;2.67;;;20.20;64.50;;;;;;5053580;28;20065;-63
2022/06/10 10:24:18;;;;;;;7.40;3.03;;;20.30;64.10;;;;;;5053039;28;20053;-62
2022/06/10 10:26:45;;;;;;;8.38;3.45;;;20.30;63.30;;;;;;5055627;28;20028;-63
2022/06/10 10:29:16;;;;;;;9.35;4.03;;;20.40;62.90;;;;;;5053919;28;20049;-62
2022/06/10 10:31:48;;;;;;;9.10;3.20;;;20.50;62.50;;;;;;5054068;28;20124;-63
2022/06/10 10:34:23;;;;;;;8.55;2.88;;;20.60;62.30;;;;;;5054281;28;20045;-62
2022/06/10 10:37:00;;;;;;;10.95;3.42;;;20.70;62.10;;;;;;5054462;28;20051;-63
2022/06/10 10:39:29;;;;;;;7.72;3.55;;;20.80;62.50;;;;;;5054171;28;20052;-63
2022/06/10 10:42:04;;;;;;;7.72;2.92;;;20.90;62.50;;;;;;5053736;28;20037;-62
2022/06/10 10:44:39;;;;;;;8.40;3.17;;;21.10;62.30;;;;;;5053600;28;20072;-63
2022/06/10 10:47:11;;;;;;;9.05;3.30;;;21.20;62.30;;;;;;5037056;28;20045;-63
2022/06/10 10:49:42;;;;;;;8.57;3.47;;;21.30;62.70;;;;;;5053366;28;20047;-62
2022/06/10 10:52:24;;;;;;;7.68;2.83;;;21.50;62.00;;;;;;5053261;28;20045;-63
2022/06/10 10:54:56;;;;;;;9.45;3.33;;;21.60;61.30;;;;;;5053793;28;20044;-63
2022/06/10 10:57:29;;;;;;;9.25;3.72;;;21.70;61.30;;;;;;5053189;28;20083;-63
2022/06/10 11:00:29;;;;;;;10.98;3.33;;;21.90;61.30;;;;;;5054535;28;20047;-62
2022/06/10 11:02:58;;;;;;;12.60;3.35;;;22.00;60.80;;;;;;5053665;28;20033;-62
2022/06/10 11:05:48;;;;;;;6.55;3.03;;;22.20;60.00;;;;;;5048657;28;20102;-63
2022/06/10 11:08:22;;;;;;;8.57;2.63;;;22.30;60.20;;;;;;5054335;28;20428;-63
2022/06/10 11:11:00;;;;;;;10.57;2.45;;;22.40;59.50;;;;;;5053980;28;20040;-63
2022/06/10 11:14:07;;;;;;;9.65;2.95;;;22.50;59.10;;;;;;5052782;28;20045;-63
2022/06/10 11:17:02;;;;;;;8.13;2.63;;;22.60;59.30;;;;;;5038534;28;20044;-63
2022/06/10 11:19:31;;;;;;;9.25;2.78;;;22.80;58.80;;;;;;5052777;28;20048;-63
2022/06/10 11:22:15;;;;;;;8.23;2.83;;;22.90;58.70;;;;;;5053858;28;20092;-63
2022/06/10 11:24:42;;;;;;;;;;;23.00;58.00;;;;;;5053109;28;20075;-63
2022/06/10 11:27:20;;;;;;;9.48;2.55;;;23.00;58.40;;;;;;5053280;28;19993;-63
2022/06/10 11:30:16;;;;;;;10.00;2.92;;;23.10;57.60;;;;;;5052338;28;20054;-63
2022/06/10 11:32:58;;;;;;;8.75;3.03;;;23.20;56.50;;;;;;5038338;28;20088;-63
2022/06/10 11:35:31;;;;;;;8.32;2.45;;;23.20;56.70;;;;;;5035372;28;20503;-63
2022/06/10 11:38:04;;;;;;;6.80;2.90;;;23.30;56.60;;;;;;5052356;28;20040;-63
2022/06/10 11:40:41;;;;;;;6.90;2.50;;;23.30;56.90;;;;;;5052065;28;20677;-63
2022/06/10 11:43:15;;;;;;;7.93;2.60;;;23.30;57.20;;;;;;5054046;28;20063;-67
2022/06/10 11:45:44;;;;;;;6.28;2.20;;;23.40;57.10;;;;;;5051886;28;20099;-67
2022/06/10 11:48:28;;;;;;;6.22;2.10;;;23.40;56.70;;;;;;5050847;28;20045;-67
2022/06/10 11:51:00;;;;;;;5.85;2.40;;;23.50;56.80;;;;;;5035710;28;20033;-68
2022/06/10 11:53:46;;;;;;;7.28;2.35;;;23.50;56.60;;;;;;5051848;28;20110;-67
2022/06/10 11:59:43;;;;;;;8.80;2.75;;;23.50;56.10;;;;;;5057610;28;20514;-68
2022/06/10 12:02:23;;;;;;;5.00;1.90;;;23.60;56.40;;;;;;5045908;28;20037;-68
2022/06/10 12:05:00;;;;;;;9.65;2.92;;;23.60;56.10;;;;;;5055143;28;20033;-75
2022/06/10 12:07:29;;;;;;;5.70;2.60;;;23.60;55.90;;;;;;5053773;28;20040;-75
2022/06/10 12:09:57;;;;;;;8.48;2.70;;;23.60;55.50;;;;;;5047582;28;20033;-75
2022/06/10 12:12:31;;;;;;;8.30;2.95;;;23.60;55.30;;;;;;5047793;28;20052;-75
2022/06/10 12:15:00;;;;;;;5.80;2.72;;;23.60;55.40;;;;;;5047552;28;20535;-75
2022/06/10 12:17:39;;;;;;;7.93;2.83;;;23.60;55.10;;;;;;5048060;28;20056;-75
2022/06/10 12:20:43;;;;;;;8.52;3.08;;;23.60;55.70;;;;;;5047256;28;20039;-76
2022/06/10 12:23:24;;;;;;;11.73;2.97;;;23.60;56.00;;;;;;5044011;28;20080;-76
2022/06/10 12:26:01;;;;;;;12.57;2.95;;;23.60;55.70;;;;;;5051699;28;20049;-75
2022/06/10 12:28:47;;;;;;;9.93;3.35;;;23.60;55.40;;;;;;5059555;28;20033;-75
2022/06/10 12:31:19;;;;;;;9.30;2.78;;;23.60;55.00;;;;;;5049441;28;20400;-76
2022/06/10 12:33:54;;;;;;;9.95;3.85;;;23.60;55.20;;;;;;5045746;28;20040;-76
2022/06/10 12:36:37;;;;;;;8.70;3.42;;;23.60;55.00;;;;;;5028518;28;20132;-68
2022/06/10 12:39:05;;;;;;;7.73;2.87;;;23.50;54.80;;;;;;5027880;28;20038;-68
2022/06/10 12:41:41;;;;;;;9.77;3.38;;;23.50;55.00;;;;;;5044418;28;20668;-75
2022/06/10 12:44:13;;;;;;;8.80;3.25;;;23.50;55.20;;;;;;5042838;28;20061;-75
2022/06/10 12:46:46;;;;;;;6.70;3.25;;;23.50;55.50;;;;;;5046116;28;20041;-75
2022/06/10 12:49:33;;;;;;;9.05;3.42;;;23.50;55.60;;;;;;5045850;28;20044;-75
2022/06/10 12:52:20;;;;;;;9.23;3.67;;;23.40;55.60;;;;;;5043861;28;20132;-75
2022/06/10 12:55:13;;;;;;;10.98;4.68;;;23.40;55.90;;;;;;5050000;28;20041;-75
2022/06/10 12:57:43;;;;;;;7.50;2.80;;;23.40;56.30;;;;;;5040519;28;20044;-75
2022/06/10 13:00:18;;;;;;;7.38;3.33;;;23.40;56.10;;;;;;5060214;28;20111;-75
2022/06/10 13:02:50;;;;;;;7.05;3.50;;;23.50;56.30;;;;;;5059367;28;20079;-75
2022/06/10 13:05:41;;;;;;;8.65;3.80;;;23.50;56.10;;;;;;5038713;28;20040;-75
2022/06/10 13:08:49;;;;;;;7.15;3.55;;;23.60;56.30;;;;;;5059741;28;20041;-75
2022/06/10 13:11:30;;;;;;;9.20;3.63;;;23.60;56.20;;;;;;5018066;28;20204;-75
2022/06/10 13:14:25;;;;;;;6.35;2.95;;;23.60;56.30;;;;;;5053208;28;20193;-75
2022/06/10 13:17:12;;;;;;;8.00;3.22;;;23.70;56.10;;;;;;5043084;28;20060;-74
2022/06/10 13:19:38;;;;;;;7.65;2.90;;;23.70;55.90;;;;;;5042091;28;20072;-75
2022/06/10 13:22:22;;;;;;;7.68;3.13;;;23.80;56.10;;;;;;5040194;28;20144;-74
2022/06/10 13:24:54;;;;;;;8.05;3.25;;;23.80;55.90;;;;;;5057572;28;20040;-75
2022/06/10 13:27:30;;;;;;;5.85;3.40;;;23.80;55.80;;;;;;5056957;28;20102;-75
2022/06/10 13:30:14;;;;;;;5.10;2.65;;;23.80;56.00;;;;;;5054581;28;20040;-74
2022/06/10 13:32:44;;;;;;;7.55;3.00;;;23.80;55.80;;;;;;5058173;28;20067;-75
2022/06/10 13:35:26;;;;;;;5.53;3.00;;;23.70;55.50;;;;;;5059062;28;20076;-74